sensor_id;sensor_type;location;lat;lon;timestamp;P1;durP1;ratioP1;P2;durP2;ratioP2
78772;SDS011;68111;44.728;11.290;2023-05-27T00:02:13;14.35;;;10.98;;
78772;SDS011;68111;44.728;11.290;2023-05-27T00:04:40;15.50;;;12.13;;
78772;SDS011;68111;44.728;11.290;2023-05-27T00:07:07;17.35;;;12.25;;
78772;SDS011;68111;44.728;11.290;2023-05-27T00:09:33;16.15;;;10.63;;
78772;SDS011;68111;44.728;11.290;2023-05-27T00:12:00;17.77;;;11.45;;
78772;SDS011;68111;44.728;11.290;2023-05-27T00:14:27;16.65;;;11.57;;
78772;SDS011;68111;44.728;11.290;2023-05-27T00:16:53;15.75;;;11.05;;
78772;SDS011;68111;44.728;11.290;2023-05-27T00:19:21;16.52;;;11.75;;
78772;SDS011;68111;44.728;11.290;2023-05-27T00:21:50;15.73;;;11.25;;
78772;SDS011;68111;44.728;11.290;2023-05-27T00:24:21;17.98;;;10.85;;
78772;SDS011;68111;44.728;11.290;2023-05-27T00:26:48;20.40;;;12.00;;
78772;SDS011;68111;44.728;11.290;2023-05-27T00:29:15;13.10;;;10.32;;
78772;SDS011;68111;44.728;11.290;2023-05-27T00:31:43;17.25;;;10.23;;
78772;SDS011;68111;44.728;11.290;2023-05-27T00:34:09;13.70;;;10.73;;
78772;SDS011;68111;44.728;11.290;2023-05-27T00:36:36;14.27;;;10.43;;
78772;SDS011;68111;44.728;11.290;2023-05-27T00:39:03;15.57;;;10.75;;
78772;SDS011;68111;44.728;11.290;2023-05-27T00:41:31;14.13;;;10.02;;
78772;SDS011;68111;44.728;11.290;2023-05-27T00:43:58;13.85;;;10.05;;
78772;SDS011;68111;44.728;11.290;2023-05-27T00:46:25;13.48;;;9.40;;
78772;SDS011;68111;44.728;11.290;2023-05-27T00:48:52;11.82;;;9.43;;
78772;SDS011;68111;44.728;11.290;2023-05-27T00:51:19;13.82;;;9.95;;
78772;SDS011;68111;44.728;11.290;2023-05-27T00:53:46;12.57;;;9.27;;
78772;SDS011;68111;44.728;11.290;2023-05-27T00:56:12;12.80;;;9.30;;
78772;SDS011;68111;44.728;11.290;2023-05-27T00:58:42;13.75;;;9.38;;
78772;SDS011;68111;44.728;11.290;2023-05-27T01:01:09;16.27;;;11.10;;
78772;SDS011;68111;44.728;11.290;2023-05-27T01:03:36;19.23;;;11.90;;
78772;SDS011;68111;44.728;11.290;2023-05-27T01:06:25;18.60;;;13.05;;
78772;SDS011;68111;44.728;11.290;2023-05-27T01:08:51;20.83;;;14.30;;
78772;SDS011;68111;44.728;11.290;2023-05-27T01:11:32;21.67;;;15.80;;
78772;SDS011;68111;44.728;11.290;2023-05-27T01:14:10;24.50;;;17.60;;
78772;SDS011;68111;44.728;11.290;2023-05-27T01:16:41;110.25;;;46.08;;
78772;SDS011;68111;44.728;11.290;2023-05-27T01:19:14;106.32;;;40.83;;
78772;SDS011;68111;44.728;11.290;2023-05-27T01:21:47;83.03;;;28.85;;
78772;SDS011;68111;44.728;11.290;2023-05-27T01:24:17;56.17;;;22.45;;
78772;SDS011;68111;44.728;11.290;2023-05-27T01:26:44;31.50;;;13.10;;
78772;SDS011;68111;44.728;11.290;2023-05-27T01:29:10;53.00;;;10.82;;
78772;SDS011;68111;44.728;11.290;2023-05-27T01:31:41;23.60;;;9.82;;
78772;SDS011;68111;44.728;11.290;2023-05-27T01:34:15;36.40;;;16.38;;
78772;SDS011;68111;44.728;11.290;2023-05-27T01:36:48;56.97;;;21.15;;
78772;SDS011;68111;44.728;11.290;2023-05-27T01:39:21;65.47;;;25.75;;
78772;SDS011;68111;44.728;11.290;2023-05-27T01:41:49;82.53;;;26.13;;
78772;SDS011;68111;44.728;11.290;2023-05-27T01:44:18;68.82;;;26.48;;
78772;SDS011;68111;44.728;11.290;2023-05-27T01:46:45;77.30;;;27.15;;
78772;SDS011;68111;44.728;11.290;2023-05-27T01:49:11;81.43;;;28.35;;
78772;SDS011;68111;44.728;11.290;2023-05-27T01:51:38;69.95;;;25.92;;
78772;SDS011;68111;44.728;11.290;2023-05-27T01:54:04;64.18;;;22.77;;
78772;SDS011;68111;44.728;11.290;2023-05-27T01:56:31;66.30;;;25.20;;
78772;SDS011;68111;44.728;11.290;2023-05-27T01:58:58;70.35;;;25.05;;
78772;SDS011;68111;44.728;11.290;2023-05-27T02:01:24;71.70;;;25.88;;
78772;SDS011;68111;44.728;11.290;2023-05-27T02:03:51;57.35;;;22.90;;
78772;SDS011;68111;44.728;11.290;2023-05-27T02:06:18;61.72;;;23.17;;
78772;SDS011;68111;44.728;11.290;2023-05-27T02:08:45;53.20;;;21.73;;
78772;SDS011;68111;44.728;11.290;2023-05-27T02:11:12;64.53;;;23.40;;
78772;SDS011;68111;44.728;11.290;2023-05-27T02:13:38;54.22;;;22.10;;
78772;SDS011;68111;44.728;11.290;2023-05-27T02:16:05;52.88;;;21.42;;
78772;SDS011;68111;44.728;11.290;2023-05-27T02:18:32;47.20;;;20.15;;
78772;SDS011;68111;44.728;11.290;2023-05-27T02:20:59;59.22;;;21.58;;
78772;SDS011;68111;44.728;11.290;2023-05-27T02:23:32;46.25;;;18.83;;
78772;SDS011;68111;44.728;11.290;2023-05-27T02:25:59;58.25;;;22.05;;
78772;SDS011;68111;44.728;11.290;2023-05-27T02:28:27;50.70;;;21.35;;
78772;SDS011;68111;44.728;11.290;2023-05-27T02:30:53;51.40;;;22.35;;
78772;SDS011;68111;44.728;11.290;2023-05-27T02:33:20;50.97;;;21.65;;
78772;SDS011;68111;44.728;11.290;2023-05-27T02:35:47;51.28;;;22.42;;
78772;SDS011;68111;44.728;11.290;2023-05-27T02:38:14;61.97;;;24.48;;
78772;SDS011;68111;44.728;11.290;2023-05-27T02:40:40;55.83;;;23.77;;
78772;SDS011;68111;44.728;11.290;2023-05-27T02:43:07;60.55;;;22.83;;
78772;SDS011;68111;44.728;11.290;2023-05-27T02:45:34;52.85;;;23.48;;
78772;SDS011;68111;44.728;11.290;2023-05-27T02:48:01;55.05;;;23.52;;
78772;SDS011;68111;44.728;11.290;2023-05-27T02:50:28;64.68;;;25.27;;
78772;SDS011;68111;44.728;11.290;2023-05-27T02:52:55;47.20;;;21.38;;
78772;SDS011;68111;44.728;11.290;2023-05-27T02:55:21;54.40;;;22.38;;
78772;SDS011;68111;44.728;11.290;2023-05-27T02:57:48;49.45;;;22.33;;
78772;SDS011;68111;44.728;11.290;2023-05-27T03:00:14;57.17;;;23.40;;
78772;SDS011;68111;44.728;11.290;2023-05-27T03:02:41;48.15;;;22.23;;
78772;SDS011;68111;44.728;11.290;2023-05-27T03:05:08;53.35;;;23.08;;
78772;SDS011;68111;44.728;11.290;2023-05-27T03:07:35;60.58;;;24.00;;
78772;SDS011;68111;44.728;11.290;2023-05-27T03:10:01;60.35;;;23.35;;
78772;SDS011;68111;44.728;11.290;2023-05-27T03:12:28;48.65;;;22.10;;
78772;SDS011;68111;44.728;11.290;2023-05-27T03:14:55;47.53;;;22.08;;
78772;SDS011;68111;44.728;11.290;2023-05-27T03:17:21;61.63;;;25.38;;
78772;SDS011;68111;44.728;11.290;2023-05-27T03:19:48;73.18;;;26.75;;
78772;SDS011;68111;44.728;11.290;2023-05-27T03:22:15;66.65;;;27.02;;
78772;SDS011;68111;44.728;11.290;2023-05-27T03:24:42;68.45;;;25.50;;
78772;SDS011;68111;44.728;11.290;2023-05-27T03:27:08;58.40;;;25.17;;
78772;SDS011;68111;44.728;11.290;2023-05-27T03:29:35;62.67;;;25.13;;
78772;SDS011;68111;44.728;11.290;2023-05-27T03:32:02;62.85;;;24.73;;
78772;SDS011;68111;44.728;11.290;2023-05-27T03:34:28;58.53;;;24.20;;
78772;SDS011;68111;44.728;11.290;2023-05-27T03:36:55;70.57;;;25.10;;
78772;SDS011;68111;44.728;11.290;2023-05-27T03:39:22;58.75;;;23.48;;
78772;SDS011;68111;44.728;11.290;2023-05-27T03:41:48;59.15;;;23.33;;
78772;SDS011;68111;44.728;11.290;2023-05-27T03:44:15;61.40;;;24.73;;
78772;SDS011;68111;44.728;11.290;2023-05-27T03:46:41;61.80;;;24.17;;
78772;SDS011;68111;44.728;11.290;2023-05-27T03:49:08;56.70;;;23.40;;
78772;SDS011;68111;44.728;11.290;2023-05-27T03:51:35;65.20;;;26.05;;
78772;SDS011;68111;44.728;11.290;2023-05-27T03:54:02;73.50;;;26.75;;
78772;SDS011;68111;44.728;11.290;2023-05-27T03:56:28;69.63;;;24.83;;
78772;SDS011;68111;44.728;11.290;2023-05-27T03:58:55;68.63;;;25.63;;
78772;SDS011;68111;44.728;11.290;2023-05-27T04:01:22;76.22;;;27.13;;
78772;SDS011;68111;44.728;11.290;2023-05-27T04:03:49;75.40;;;28.17;;
78772;SDS011;68111;44.728;11.290;2023-05-27T04:06:16;63.60;;;25.27;;
78772;SDS011;68111;44.728;11.290;2023-05-27T04:08:43;70.72;;;25.38;;
78772;SDS011;68111;44.728;11.290;2023-05-27T04:11:10;63.47;;;22.83;;
78772;SDS011;68111;44.728;11.290;2023-05-27T04:13:39;50.10;;;20.80;;
78772;SDS011;68111;44.728;11.290;2023-05-27T04:16:06;53.13;;;21.30;;
78772;SDS011;68111;44.728;11.290;2023-05-27T04:18:34;42.97;;;17.23;;
78772;SDS011;68111;44.728;11.290;2023-05-27T04:21:01;37.08;;;14.15;;
78772;SDS011;68111;44.728;11.290;2023-05-27T04:23:28;34.83;;;13.95;;
78772;SDS011;68111;44.728;11.290;2023-05-27T04:25:55;28.00;;;12.90;;
78772;SDS011;68111;44.728;11.290;2023-05-27T04:28:21;32.92;;;13.13;;
78772;SDS011;68111;44.728;11.290;2023-05-27T04:30:48;28.63;;;13.52;;
78772;SDS011;68111;44.728;11.290;2023-05-27T04:33:16;29.55;;;12.75;;
78772;SDS011;68111;44.728;11.290;2023-05-27T04:35:43;30.50;;;13.20;;
78772;SDS011;68111;44.728;11.290;2023-05-27T04:38:10;33.17;;;13.93;;
78772;SDS011;68111;44.728;11.290;2023-05-27T04:40:42;33.60;;;15.75;;
78772;SDS011;68111;44.728;11.290;2023-05-27T04:43:11;23.67;;;10.38;;
78772;SDS011;68111;44.728;11.290;2023-05-27T04:45:41;25.20;;;10.30;;
78772;SDS011;68111;44.728;11.290;2023-05-27T04:48:09;21.35;;;10.40;;
78772;SDS011;68111;44.728;11.290;2023-05-27T04:50:37;18.88;;;9.25;;
78772;SDS011;68111;44.728;11.290;2023-05-27T04:53:03;22.77;;;10.50;;
78772;SDS011;68111;44.728;11.290;2023-05-27T04:55:32;22.88;;;10.85;;
78772;SDS011;68111;44.728;11.290;2023-05-27T04:57:59;20.15;;;10.20;;
78772;SDS011;68111;44.728;11.290;2023-05-27T05:00:30;18.08;;;9.45;;
78772;SDS011;68111;44.728;11.290;2023-05-27T05:03:05;23.20;;;9.63;;
78772;SDS011;68111;44.728;11.290;2023-05-27T05:05:33;19.10;;;9.50;;
78772;SDS011;68111;44.728;11.290;2023-05-27T05:08:01;20.65;;;10.40;;
78772;SDS011;68111;44.728;11.290;2023-05-27T05:10:28;26.95;;;11.50;;
78772;SDS011;68111;44.728;11.290;2023-05-27T05:12:56;25.58;;;11.05;;
78772;SDS011;68111;44.728;11.290;2023-05-27T05:15:23;22.33;;;11.18;;
78772;SDS011;68111;44.728;11.290;2023-05-27T05:17:49;18.98;;;10.07;;
78772;SDS011;68111;44.728;11.290;2023-05-27T05:20:16;21.73;;;10.63;;
78772;SDS011;68111;44.728;11.290;2023-05-27T05:22:43;21.10;;;9.73;;
78772;SDS011;68111;44.728;11.290;2023-05-27T05:25:09;16.58;;;9.18;;
78772;SDS011;68111;44.728;11.290;2023-05-27T05:27:36;14.88;;;7.80;;
78772;SDS011;68111;44.728;11.290;2023-05-27T05:30:03;14.38;;;7.20;;
78772;SDS011;68111;44.728;11.290;2023-05-27T05:32:31;11.20;;;6.93;;
78772;SDS011;68111;44.728;11.290;2023-05-27T05:34:57;14.75;;;7.90;;
78772;SDS011;68111;44.728;11.290;2023-05-27T05:37:24;15.38;;;7.10;;
78772;SDS011;68111;44.728;11.290;2023-05-27T05:39:53;12.70;;;7.20;;
78772;SDS011;68111;44.728;11.290;2023-05-27T05:44:48;13.77;;;7.38;;
78772;SDS011;68111;44.728;11.290;2023-05-27T05:47:15;13.27;;;7.28;;
78772;SDS011;68111;44.728;11.290;2023-05-27T05:49:45;11.25;;;7.38;;
78772;SDS011;68111;44.728;11.290;2023-05-27T05:52:12;13.35;;;6.63;;
78772;SDS011;68111;44.728;11.290;2023-05-27T05:54:39;13.25;;;7.80;;
78772;SDS011;68111;44.728;11.290;2023-05-27T05:57:05;14.02;;;7.10;;
78772;SDS011;68111;44.728;11.290;2023-05-27T05:59:32;10.23;;;6.90;;
78772;SDS011;68111;44.728;11.290;2023-05-27T06:01:58;12.63;;;7.22;;
78772;SDS011;68111;44.728;11.290;2023-05-27T06:04:25;11.73;;;6.53;;
78772;SDS011;68111;44.728;11.290;2023-05-27T06:06:52;12.15;;;6.28;;
78772;SDS011;68111;44.728;11.290;2023-05-27T06:09:22;12.88;;;6.68;;
78772;SDS011;68111;44.728;11.290;2023-05-27T06:11:49;9.05;;;6.07;;
78772;SDS011;68111;44.728;11.290;2023-05-27T06:14:16;12.20;;;6.57;;
78772;SDS011;68111;44.728;11.290;2023-05-27T06:16:42;12.93;;;6.10;;
78772;SDS011;68111;44.728;11.290;2023-05-27T06:19:09;10.68;;;5.80;;
78772;SDS011;68111;44.728;11.290;2023-05-27T06:21:36;11.43;;;6.13;;
78772;SDS011;68111;44.728;11.290;2023-05-27T06:24:03;12.50;;;5.78;;
78772;SDS011;68111;44.728;11.290;2023-05-27T06:26:30;8.73;;;5.20;;
78772;SDS011;68111;44.728;11.290;2023-05-27T06:28:56;11.45;;;6.28;;
78772;SDS011;68111;44.728;11.290;2023-05-27T06:31:23;12.23;;;6.40;;
78772;SDS011;68111;44.728;11.290;2023-05-27T06:33:49;10.00;;;6.10;;
78772;SDS011;68111;44.728;11.290;2023-05-27T06:36:16;9.68;;;6.03;;
78772;SDS011;68111;44.728;11.290;2023-05-27T06:38:43;10.48;;;5.85;;
78772;SDS011;68111;44.728;11.290;2023-05-27T06:41:10;10.07;;;5.68;;
78772;SDS011;68111;44.728;11.290;2023-05-27T06:43:36;10.63;;;5.80;;
78772;SDS011;68111;44.728;11.290;2023-05-27T06:46:03;10.88;;;5.70;;
78772;SDS011;68111;44.728;11.290;2023-05-27T06:48:30;10.15;;;5.88;;
78772;SDS011;68111;44.728;11.290;2023-05-27T06:50:57;10.68;;;5.43;;
78772;SDS011;68111;44.728;11.290;2023-05-27T06:53:24;13.40;;;6.07;;
78772;SDS011;68111;44.728;11.290;2023-05-27T06:55:51;11.80;;;5.82;;
78772;SDS011;68111;44.728;11.290;2023-05-27T06:58:17;10.18;;;6.43;;
78772;SDS011;68111;44.728;11.290;2023-05-27T07:00:44;10.18;;;5.88;;
78772;SDS011;68111;44.728;11.290;2023-05-27T07:03:11;11.90;;;6.60;;
78772;SDS011;68111;44.728;11.290;2023-05-27T07:05:38;13.50;;;6.03;;
78772;SDS011;68111;44.728;11.290;2023-05-27T07:08:05;9.82;;;5.93;;
78772;SDS011;68111;44.728;11.290;2023-05-27T07:10:32;10.50;;;5.90;;
78772;SDS011;68111;44.728;11.290;2023-05-27T07:12:59;10.55;;;5.32;;
78772;SDS011;68111;44.728;11.290;2023-05-27T07:15:26;10.60;;;5.30;;
78772;SDS011;68111;44.728;11.290;2023-05-27T07:17:53;11.70;;;5.43;;
78772;SDS011;68111;44.728;11.290;2023-05-27T07:20:20;7.90;;;5.38;;
78772;SDS011;68111;44.728;11.290;2023-05-27T07:22:47;11.07;;;5.80;;
78772;SDS011;68111;44.728;11.290;2023-05-27T07:25:14;9.98;;;5.03;;
78772;SDS011;68111;44.728;11.290;2023-05-27T07:27:40;11.10;;;5.68;;
78772;SDS011;68111;44.728;11.290;2023-05-27T07:30:07;9.98;;;5.82;;
78772;SDS011;68111;44.728;11.290;2023-05-27T07:32:34;9.25;;;5.57;;
78772;SDS011;68111;44.728;11.290;2023-05-27T07:35:01;7.57;;;5.05;;
78772;SDS011;68111;44.728;11.290;2023-05-27T07:37:28;8.75;;;4.63;;
78772;SDS011;68111;44.728;11.290;2023-05-27T07:39:56;8.05;;;4.75;;
78772;SDS011;68111;44.728;11.290;2023-05-27T07:42:23;7.72;;;4.30;;
78772;SDS011;68111;44.728;11.290;2023-05-27T07:44:50;9.48;;;4.90;;
78772;SDS011;68111;44.728;11.290;2023-05-27T07:47:16;7.85;;;4.70;;
78772;SDS011;68111;44.728;11.290;2023-05-27T07:49:43;8.23;;;4.22;;
78772;SDS011;68111;44.728;11.290;2023-05-27T07:52:10;8.68;;;4.80;;
78772;SDS011;68111;44.728;11.290;2023-05-27T07:54:36;8.82;;;5.07;;
78772;SDS011;68111;44.728;11.290;2023-05-27T07:57:19;9.35;;;6.63;;
78772;SDS011;68111;44.728;11.290;2023-05-27T07:59:46;7.68;;;4.90;;
78772;SDS011;68111;44.728;11.290;2023-05-27T08:02:12;11.30;;;5.50;;
78772;SDS011;68111;44.728;11.290;2023-05-27T08:04:39;6.95;;;4.45;;
78772;SDS011;68111;44.728;11.290;2023-05-27T08:07:06;8.77;;;4.88;;
78772;SDS011;68111;44.728;11.290;2023-05-27T08:09:33;7.85;;;5.20;;
78772;SDS011;68111;44.728;11.290;2023-05-27T08:11:59;8.73;;;5.38;;
78772;SDS011;68111;44.728;11.290;2023-05-27T08:14:26;7.82;;;4.82;;
78772;SDS011;68111;44.728;11.290;2023-05-27T08:16:54;9.57;;;5.32;;
78772;SDS011;68111;44.728;11.290;2023-05-27T08:19:21;6.88;;;5.10;;
78772;SDS011;68111;44.728;11.290;2023-05-27T08:21:48;10.30;;;5.18;;
78772;SDS011;68111;44.728;11.290;2023-05-27T08:24:14;7.85;;;5.40;;
78772;SDS011;68111;44.728;11.290;2023-05-27T08:26:41;7.15;;;4.85;;
78772;SDS011;68111;44.728;11.290;2023-05-27T08:29:07;7.13;;;5.22;;
78772;SDS011;68111;44.728;11.290;2023-05-27T08:31:34;7.53;;;4.75;;
78772;SDS011;68111;44.728;11.290;2023-05-27T08:34:01;8.80;;;5.47;;
78772;SDS011;68111;44.728;11.290;2023-05-27T08:36:27;10.52;;;5.60;;
78772;SDS011;68111;44.728;11.290;2023-05-27T08:38:55;8.57;;;6.35;;
78772;SDS011;68111;44.728;11.290;2023-05-27T08:41:22;9.35;;;5.97;;
78772;SDS011;68111;44.728;11.290;2023-05-27T08:43:49;9.10;;;5.75;;
78772;SDS011;68111;44.728;11.290;2023-05-27T08:46:22;7.47;;;6.03;;
78772;SDS011;68111;44.728;11.290;2023-05-27T08:48:49;10.00;;;6.40;;
78772;SDS011;68111;44.728;11.290;2023-05-27T08:51:16;8.35;;;6.03;;
78772;SDS011;68111;44.728;11.290;2023-05-27T08:53:45;10.80;;;6.07;;
78772;SDS011;68111;44.728;11.290;2023-05-27T08:56:12;10.40;;;6.28;;
78772;SDS011;68111;44.728;11.290;2023-05-27T08:58:41;9.23;;;5.80;;
78772;SDS011;68111;44.728;11.290;2023-05-27T09:01:09;10.35;;;6.40;;
78772;SDS011;68111;44.728;11.290;2023-05-27T09:03:36;7.65;;;6.10;;
78772;SDS011;68111;44.728;11.290;2023-05-27T09:06:03;7.70;;;5.97;;
78772;SDS011;68111;44.728;11.290;2023-05-27T09:08:31;9.38;;;6.53;;
78772;SDS011;68111;44.728;11.290;2023-05-27T09:11:19;9.77;;;6.40;;
78772;SDS011;68111;44.728;11.290;2023-05-27T09:13:54;9.57;;;6.78;;
78772;SDS011;68111;44.728;11.290;2023-05-27T09:16:22;8.95;;;6.18;;
78772;SDS011;68111;44.728;11.290;2023-05-27T09:18:50;11.63;;;7.20;;
78772;SDS011;68111;44.728;11.290;2023-05-27T09:21:17;7.15;;;6.00;;
78772;SDS011;68111;44.728;11.290;2023-05-27T09:23:44;10.52;;;6.75;;
78772;SDS011;68111;44.728;11.290;2023-05-27T09:26:11;9.57;;;7.57;;
78772;SDS011;68111;44.728;11.290;2023-05-27T09:28:39;9.45;;;6.63;;
78772;SDS011;68111;44.728;11.290;2023-05-27T09:31:07;9.65;;;6.65;;
78772;SDS011;68111;44.728;11.290;2023-05-27T09:33:38;8.57;;;6.57;;
78772;SDS011;68111;44.728;11.290;2023-05-27T09:36:08;8.75;;;6.40;;
78772;SDS011;68111;44.728;11.290;2023-05-27T09:38:37;9.65;;;7.20;;
78772;SDS011;68111;44.728;11.290;2023-05-27T09:41:04;11.15;;;7.20;;
78772;SDS011;68111;44.728;11.290;2023-05-27T09:43:31;9.77;;;6.72;;
78772;SDS011;68111;44.728;11.290;2023-05-27T09:48:29;9.20;;;7.30;;
78772;SDS011;68111;44.728;11.290;2023-05-27T09:50:59;10.90;;;7.00;;
78772;SDS011;68111;44.728;11.290;2023-05-27T09:53:27;9.85;;;7.15;;
78772;SDS011;68111;44.728;11.290;2023-05-27T09:55:54;7.03;;;6.32;;
78772;SDS011;68111;44.728;11.290;2023-05-27T09:58:22;8.25;;;6.50;;
78772;SDS011;68111;44.728;11.290;2023-05-27T10:00:50;7.90;;;6.00;;
78772;SDS011;68111;44.728;11.290;2023-05-27T10:03:21;9.13;;;6.20;;
78772;SDS011;68111;44.728;11.290;2023-05-27T10:05:49;7.90;;;6.40;;
78772;SDS011;68111;44.728;11.290;2023-05-27T10:08:17;10.50;;;5.88;;
78772;SDS011;68111;44.728;11.290;2023-05-27T10:10:52;11.40;;;5.75;;
78772;SDS011;68111;44.728;11.290;2023-05-27T10:13:20;8.68;;;5.70;;
78772;SDS011;68111;44.728;11.290;2023-05-27T10:15:48;8.02;;;6.28;;
78772;SDS011;68111;44.728;11.290;2023-05-27T10:18:22;8.88;;;5.88;;
78772;SDS011;68111;44.728;11.290;2023-05-27T10:20:54;8.68;;;5.78;;
78772;SDS011;68111;44.728;11.290;2023-05-27T10:23:27;8.23;;;6.25;;
78772;SDS011;68111;44.728;11.290;2023-05-27T10:25:56;8.65;;;6.10;;
78772;SDS011;68111;44.728;11.290;2023-05-27T10:28:28;8.70;;;6.28;;
78772;SDS011;68111;44.728;11.290;2023-05-27T10:31:06;7.65;;;6.32;;
78772;SDS011;68111;44.728;11.290;2023-05-27T10:33:47;7.05;;;5.65;;
78772;SDS011;68111;44.728;11.290;2023-05-27T10:36:22;10.02;;;6.55;;
78772;SDS011;68111;44.728;11.290;2023-05-27T10:41:24;10.73;;;6.63;;
78772;SDS011;68111;44.728;11.290;2023-05-27T10:43:58;9.75;;;6.28;;
78772;SDS011;68111;44.728;11.290;2023-05-27T10:46:25;10.50;;;6.43;;
78772;SDS011;68111;44.728;11.290;2023-05-27T10:48:53;10.68;;;6.30;;
78772;SDS011;68111;44.728;11.290;2023-05-27T10:51:20;8.63;;;6.68;;
78772;SDS011;68111;44.728;11.290;2023-05-27T10:53:58;9.02;;;6.43;;
78772;SDS011;68111;44.728;11.290;2023-05-27T10:56:49;8.93;;;5.95;;
78772;SDS011;68111;44.728;11.290;2023-05-27T10:59:19;8.10;;;5.67;;
78772;SDS011;68111;44.728;11.290;2023-05-27T11:01:52;11.48;;;6.35;;
78772;SDS011;68111;44.728;11.290;2023-05-27T11:04:20;10.75;;;5.32;;
78772;SDS011;68111;44.728;11.290;2023-05-27T11:06:58;8.98;;;5.88;;
78772;SDS011;68111;44.728;11.290;2023-05-27T11:09:51;10.85;;;5.97;;
78772;SDS011;68111;44.728;11.290;2023-05-27T11:12:18;8.38;;;5.65;;
78772;SDS011;68111;44.728;11.290;2023-05-27T11:14:53;10.00;;;5.95;;
78772;SDS011;68111;44.728;11.290;2023-05-27T11:17:21;9.70;;;5.82;;
78772;SDS011;68111;44.728;11.290;2023-05-27T11:19:50;8.82;;;5.90;;
78772;SDS011;68111;44.728;11.290;2023-05-27T11:22:16;10.20;;;6.55;;
78772;SDS011;68111;44.728;11.290;2023-05-27T11:25:00;10.55;;;5.60;;
78772;SDS011;68111;44.728;11.290;2023-05-27T11:27:32;8.50;;;5.70;;
78772;SDS011;68111;44.728;11.290;2023-05-27T11:30:06;8.15;;;5.40;;
78772;SDS011;68111;44.728;11.290;2023-05-27T11:32:39;9.27;;;5.90;;
78772;SDS011;68111;44.728;11.290;2023-05-27T11:35:13;10.27;;;6.00;;
78772;SDS011;68111;44.728;11.290;2023-05-27T11:37:40;9.25;;;6.38;;
78772;SDS011;68111;44.728;11.290;2023-05-27T11:40:10;9.13;;;5.53;;
78772;SDS011;68111;44.728;11.290;2023-05-27T11:42:43;9.30;;;5.85;;
78772;SDS011;68111;44.728;11.290;2023-05-27T11:45:18;9.25;;;5.95;;
78772;SDS011;68111;44.728;11.290;2023-05-27T11:47:45;9.80;;;6.03;;
78772;SDS011;68111;44.728;11.290;2023-05-27T11:50:20;9.43;;;5.50;;
78772;SDS011;68111;44.728;11.290;2023-05-27T11:52:52;10.32;;;5.63;;
78772;SDS011;68111;44.728;11.290;2023-05-27T11:55:19;8.30;;;5.22;;
78772;SDS011;68111;44.728;11.290;2023-05-27T11:57:46;8.55;;;5.60;;
78772;SDS011;68111;44.728;11.290;2023-05-27T12:00:13;8.05;;;5.22;;
78772;SDS011;68111;44.728;11.290;2023-05-27T12:02:40;9.93;;;5.57;;
78772;SDS011;68111;44.728;11.290;2023-05-27T12:05:08;9.50;;;5.80;;
78772;SDS011;68111;44.728;11.290;2023-05-27T12:07:47;10.32;;;6.00;;
78772;SDS011;68111;44.728;11.290;2023-05-27T12:10:15;8.98;;;5.53;;
78772;SDS011;68111;44.728;11.290;2023-05-27T12:12:42;9.00;;;5.35;;
78772;SDS011;68111;44.728;11.290;2023-05-27T12:15:10;10.48;;;5.90;;
78772;SDS011;68111;44.728;11.290;2023-05-27T12:17:37;9.70;;;5.82;;
78772;SDS011;68111;44.728;11.290;2023-05-27T12:20:04;9.07;;;5.85;;
78772;SDS011;68111;44.728;11.290;2023-05-27T12:22:32;8.27;;;5.38;;
78772;SDS011;68111;44.728;11.290;2023-05-27T12:24:59;9.20;;;5.53;;
78772;SDS011;68111;44.728;11.290;2023-05-27T12:27:25;10.35;;;6.43;;
78772;SDS011;68111;44.728;11.290;2023-05-27T12:29:52;9.35;;;5.57;;
78772;SDS011;68111;44.728;11.290;2023-05-27T12:32:19;8.45;;;5.50;;
78772;SDS011;68111;44.728;11.290;2023-05-27T12:34:45;9.77;;;5.78;;
78772;SDS011;68111;44.728;11.290;2023-05-27T12:37:12;10.52;;;5.82;;
78772;SDS011;68111;44.728;11.290;2023-05-27T12:39:38;9.70;;;5.25;;
78772;SDS011;68111;44.728;11.290;2023-05-27T12:42:05;9.35;;;5.32;;
78772;SDS011;68111;44.728;11.290;2023-05-27T12:44:32;10.70;;;5.82;;
78772;SDS011;68111;44.728;11.290;2023-05-27T12:46:58;9.38;;;5.40;;
78772;SDS011;68111;44.728;11.290;2023-05-27T12:49:25;8.20;;;5.53;;
78772;SDS011;68111;44.728;11.290;2023-05-27T12:51:51;9.15;;;5.25;;
78772;SDS011;68111;44.728;11.290;2023-05-27T12:54:18;8.73;;;5.82;;
78772;SDS011;68111;44.728;11.290;2023-05-27T12:56:45;9.10;;;5.47;;
78772;SDS011;68111;44.728;11.290;2023-05-27T12:59:12;10.63;;;5.70;;
78772;SDS011;68111;44.728;11.290;2023-05-27T13:01:38;9.23;;;5.68;;
78772;SDS011;68111;44.728;11.290;2023-05-27T13:04:05;8.20;;;6.05;;
78772;SDS011;68111;44.728;11.290;2023-05-27T13:06:32;9.50;;;5.60;;
78772;SDS011;68111;44.728;11.290;2023-05-27T13:08:59;7.82;;;5.40;;
78772;SDS011;68111;44.728;11.290;2023-05-27T13:11:25;9.50;;;5.65;;
78772;SDS011;68111;44.728;11.290;2023-05-27T13:13:52;9.38;;;5.70;;
78772;SDS011;68111;44.728;11.290;2023-05-27T13:16:19;10.73;;;6.03;;
78772;SDS011;68111;44.728;11.290;2023-05-27T13:18:46;8.95;;;5.85;;
78772;SDS011;68111;44.728;11.290;2023-05-27T13:21:13;10.48;;;5.32;;
78772;SDS011;68111;44.728;11.290;2023-05-27T13:23:40;8.50;;;5.38;;
78772;SDS011;68111;44.728;11.290;2023-05-27T13:26:06;9.15;;;5.47;;
78772;SDS011;68111;44.728;11.290;2023-05-27T13:28:33;11.07;;;5.85;;
78772;SDS011;68111;44.728;11.290;2023-05-27T13:31:00;9.65;;;5.38;;
78772;SDS011;68111;44.728;11.290;2023-05-27T13:33:27;10.32;;;5.50;;
78772;SDS011;68111;44.728;11.290;2023-05-27T13:35:53;8.10;;;5.32;;
78772;SDS011;68111;44.728;11.290;2023-05-27T13:38:20;9.50;;;5.43;;
78772;SDS011;68111;44.728;11.290;2023-05-27T13:40:46;9.70;;;5.72;;
78772;SDS011;68111;44.728;11.290;2023-05-27T13:43:13;8.57;;;5.07;;
78772;SDS011;68111;44.728;11.290;2023-05-27T13:45:39;7.95;;;5.28;;
78772;SDS011;68111;44.728;11.290;2023-05-27T13:48:06;9.02;;;5.38;;
78772;SDS011;68111;44.728;11.290;2023-05-27T13:50:33;9.15;;;5.60;;
78772;SDS011;68111;44.728;11.290;2023-05-27T13:53:01;11.63;;;5.97;;
78772;SDS011;68111;44.728;11.290;2023-05-27T13:55:27;9.40;;;5.47;;
78772;SDS011;68111;44.728;11.290;2023-05-27T13:57:54;10.68;;;6.20;;
78772;SDS011;68111;44.728;11.290;2023-05-27T14:00:21;9.70;;;5.78;;
78772;SDS011;68111;44.728;11.290;2023-05-27T14:02:48;8.50;;;5.45;;
78772;SDS011;68111;44.728;11.290;2023-05-27T14:05:15;8.63;;;5.70;;
78772;SDS011;68111;44.728;11.290;2023-05-27T14:07:42;9.05;;;5.53;;
78772;SDS011;68111;44.728;11.290;2023-05-27T14:12:39;9.70;;;5.95;;
78772;SDS011;68111;44.728;11.290;2023-05-27T14:15:06;10.00;;;5.60;;
78772;SDS011;68111;44.728;11.290;2023-05-27T14:17:33;10.23;;;5.65;;
78772;SDS011;68111;44.728;11.290;2023-05-27T14:19:59;9.45;;;6.00;;
78772;SDS011;68111;44.728;11.290;2023-05-27T14:22:26;8.60;;;5.65;;
78772;SDS011;68111;44.728;11.290;2023-05-27T14:24:53;9.07;;;5.72;;
78772;SDS011;68111;44.728;11.290;2023-05-27T14:27:20;10.82;;;5.68;;
78772;SDS011;68111;44.728;11.290;2023-05-27T14:29:46;9.57;;;5.72;;
78772;SDS011;68111;44.728;11.290;2023-05-27T14:32:13;10.18;;;6.00;;
78772;SDS011;68111;44.728;11.290;2023-05-27T14:34:39;10.55;;;5.47;;
78772;SDS011;68111;44.728;11.290;2023-05-27T14:37:06;9.13;;;6.13;;